createdAt,value
2019-01-13T00:07:15.781Z,7.50
2019-01-13T00:17:24.556Z,7.50
2019-01-13T00:32:37.102Z,7.50
2019-01-13T00:37:41.436Z,7.50
2019-01-13T00:42:46.083Z,7.60
2019-01-13T01:03:02.620Z,7.60
2019-01-13T01:08:07.512Z,7.60
2019-01-13T01:13:11.908Z,7.70
2019-01-13T01:28:24.444Z,7.70
2019-01-13T01:38:33.788Z,7.70
2019-01-13T01:43:38.169Z,7.70
2019-01-13T01:58:51.429Z,7.70
2019-01-13T02:14:04.099Z,7.70
2019-01-13T02:34:20.909Z,7.70
2019-01-13T02:39:25.295Z,7.70
2019-01-13T02:44:29.681Z,7.70
2019-01-13T02:49:34.300Z,7.60
2019-01-13T02:54:38.689Z,7.70
2019-01-13T02:59:43.073Z,7.70
2019-01-13T03:14:55.920Z,7.70
2019-01-13T03:20:00.294Z,7.60
2019-01-13T03:25:08.350Z,7.60
2019-01-13T03:30:22.986Z,7.60
2019-01-13T03:40:31.478Z,7.60
2019-01-13T03:45:36.123Z,7.60
2019-01-13T03:56:03.941Z,7.60
2019-01-13T04:01:08.317Z,7.60
2019-01-13T04:11:16.744Z,7.60
2019-01-13T04:26:29.417Z,7.60
2019-01-13T04:41:42.190Z,7.60
2019-01-13T04:51:51.241Z,7.60
2019-01-13T05:17:12.214Z,7.80
2019-01-13T05:22:16.945Z,7.80
2019-01-13T05:32:25.689Z,7.80
2019-01-13T05:42:34.152Z,7.80
2019-01-13T05:52:43.791Z,7.90
2019-01-13T05:57:48.238Z,7.90
2019-01-13T06:02:52.707Z,7.90
2019-01-13T06:13:01.538Z,8.00
2019-01-13T06:18:05.926Z,8.00
2019-01-13T06:23:10.625Z,8.00
2019-01-13T06:43:27.198Z,8.00
2019-01-13T06:53:36.345Z,8.00
2019-01-13T06:58:40.977Z,8.10
2019-01-13T07:03:45.361Z,8.10
2019-01-13T07:08:49.801Z,8.00
2019-01-13T07:18:58.319Z,8.10
2019-01-13T07:24:02.699Z,8.10
2019-01-13T07:34:11.149Z,8.20
2019-01-13T07:54:28.428Z,8.20
2019-01-13T08:09:41.170Z,8.40
2019-01-13T08:14:45.571Z,8.40
2019-01-13T08:40:11.288Z,8.60
2019-01-13T08:50:21.947Z,8.70
2019-01-13T09:00:31.516Z,8.80
2019-01-13T09:10:39.959Z,8.90
2019-01-13T09:20:48.744Z,8.90
2019-01-13T09:36:01.494Z,9.00
2019-01-13T09:51:13.990Z,9.00
2019-01-13T10:01:22.443Z,9.00
2019-01-13T10:11:31.495Z,9.10
2019-01-13T10:16:36.135Z,9.00
2019-01-13T10:31:48.730Z,9.10
2019-01-13T10:36:53.143Z,9.00
2019-01-13T10:47:02.168Z,9.10
2019-01-13T11:07:19.170Z,9.10
2019-01-13T11:12:23.591Z,9.10
2019-01-13T11:42:50.072Z,9.20
2019-01-13T11:58:02.876Z,9.20
2019-01-13T12:08:12.154Z,9.20
2019-01-13T12:13:16.780Z,9.20
2019-01-13T12:18:21.234Z,9.20
2019-01-13T12:38:38.603Z,9.20
2019-01-13T12:48:47.459Z,9.20
2019-01-13T12:58:57.335Z,9.20
2019-01-13T13:19:17.051Z,9.30
2019-01-13T13:34:29.805Z,9.30
2019-01-13T13:44:38.663Z,9.30
2019-01-13T13:49:43.155Z,9.20
2019-01-13T13:54:47.580Z,9.30
2019-01-13T14:04:56.167Z,9.30
2019-01-13T14:15:07.102Z,9.30
2019-01-13T14:25:19.328Z,9.30
2019-01-13T14:30:28.638Z,9.30
2019-01-13T14:35:33.117Z,9.20
2019-01-13T15:41:28.905Z,9.20
2019-01-13T15:46:33.395Z,9.10
2019-01-13T15:56:42.103Z,9.10
2019-01-13T16:01:46.744Z,9.10
2019-01-13T16:37:17.716Z,9.10
2019-01-13T16:47:26.582Z,9.00
2019-01-13T17:17:53.476Z,9.00
2019-01-13T17:43:15.576Z,8.90
2019-01-13T17:48:20.170Z,8.90
2019-01-13T17:58:29.167Z,8.90
2019-01-13T18:03:38.521Z,8.90
2019-01-13T18:23:55.759Z,9.00
2019-01-13T18:29:00.235Z,9.00
2019-01-13T18:34:04.754Z,8.90
2019-01-13T18:39:09.222Z,8.80
2019-01-13T18:49:17.861Z,8.30
2019-01-13T19:04:37.847Z,8.40
2019-01-13T19:30:23.687Z,8.80
2019-01-13T19:35:30.203Z,8.70
2019-01-13T19:40:34.668Z,8.70
2019-01-13T19:45:39.240Z,8.90
2019-01-13T20:00:54.143Z,8.30
2019-01-13T20:16:07.040Z,7.20
2019-01-13T20:21:11.528Z,7.10
2019-01-13T20:41:28.684Z,7.30
2019-01-13T20:46:33.153Z,7.20
2019-01-13T20:51:37.742Z,7.10
2019-01-13T20:56:42.513Z,7.00
2019-01-13T21:01:47.242Z,7.10
2019-01-13T21:06:53.528Z,7.10
2019-01-13T21:11:58.226Z,7.20
2019-01-13T21:17:02.702Z,7.20
2019-01-13T21:27:11.763Z,7.30
2019-01-13T21:32:16.190Z,7.30
2019-01-13T21:42:24.810Z,7.40
2019-01-13T21:47:29.445Z,7.50
2019-01-13T22:07:46.640Z,7.60
2019-01-13T22:12:51.175Z,7.40
2019-01-13T22:17:55.690Z,7.30
2019-01-13T22:33:09.920Z,7.40
2019-01-13T22:48:22.560Z,7.10
2019-01-13T22:53:26.934Z,7.10
2019-01-13T22:58:31.333Z,7.10
2019-01-13T23:03:35.874Z,7.20
2019-01-13T23:13:44.649Z,7.30
2019-01-13T23:28:57.758Z,7.30
2019-01-13T23:34:02.151Z,7.30
2019-01-13T23:39:08.260Z,7.30
2019-01-13T23:49:16.792Z,7.30
